createdAt,value
2023-04-18T00:00:41.122Z,5.70
2023-04-18T00:03:09.948Z,5.30
2023-04-18T00:05:36.878Z,5.30
2023-04-18T00:08:04.087Z,5.60
2023-04-18T00:10:30.703Z,5.28
2023-04-18T00:12:58.340Z,5.57
2023-04-18T00:15:24.849Z,5.47
2023-04-18T00:17:51.325Z,5.57
2023-04-18T00:20:18.022Z,5.78
2023-04-18T00:22:46.452Z,5.65
2023-04-18T00:25:13.219Z,5.88
2023-04-18T00:27:39.641Z,6.55
2023-04-18T00:30:08.584Z,5.43
2023-04-18T00:32:35.139Z,5.47
2023-04-18T00:35:01.802Z,5.88
2023-04-18T00:37:29.359Z,5.35
2023-04-18T00:39:55.871Z,5.20
2023-04-18T00:42:22.620Z,5.60
2023-04-18T00:44:49.095Z,5.75
2023-04-18T00:47:17.365Z,5.35
2023-04-18T00:49:44.981Z,5.72
2023-04-18T00:52:14.331Z,6.00
2023-04-18T00:54:41.452Z,5.88
2023-04-18T00:57:08.025Z,6.43
2023-04-18T00:59:37.727Z,6.55
2023-04-18T01:02:04.341Z,6.43
2023-04-18T01:04:32.617Z,6.65
2023-04-18T01:06:59.625Z,6.70
2023-04-18T01:09:26.264Z,6.85
2023-04-18T01:11:52.702Z,7.10
2023-04-18T01:14:19.871Z,7.20
2023-04-18T01:16:47.187Z,7.30
2023-04-18T01:19:14.550Z,7.97
2023-04-18T01:21:43.846Z,7.95
2023-04-18T01:24:12.415Z,7.57
2023-04-18T01:26:39.440Z,7.78
2023-04-18T01:29:06.244Z,8.10
2023-04-18T01:31:40.125Z,7.80
2023-04-18T01:34:07.131Z,7.40
2023-04-18T01:36:33.863Z,6.95
2023-04-18T01:39:00.376Z,7.65
2023-04-18T01:41:29.170Z,6.95
2023-04-18T01:43:55.702Z,7.38
2023-04-18T01:46:22.147Z,6.93
2023-04-18T01:48:48.641Z,8.30
2023-04-18T01:51:15.263Z,7.63
2023-04-18T01:53:42.050Z,7.75
2023-04-18T01:56:10.374Z,7.20
2023-04-18T01:58:37.305Z,7.50
2023-04-18T02:01:04.056Z,7.47
2023-04-18T02:03:31.148Z,7.32
2023-04-18T02:05:57.706Z,7.40
2023-04-18T02:08:24.138Z,7.45
2023-04-18T02:10:50.584Z,7.93
2023-04-18T02:13:17.094Z,7.53
2023-04-18T02:15:45.541Z,7.45
2023-04-18T02:18:12.241Z,7.95
2023-04-18T02:20:39.324Z,7.97
2023-04-18T02:23:06.182Z,7.80
2023-04-18T02:25:32.725Z,7.90
2023-04-18T02:27:59.301Z,7.90
2023-04-18T02:30:25.891Z,8.52
2023-04-18T02:32:53.385Z,7.82
2023-04-18T02:35:22.859Z,8.65
2023-04-18T02:37:49.632Z,7.70
2023-04-18T02:40:16.142Z,7.15
2023-04-18T02:42:42.574Z,7.63
2023-04-18T02:45:09.696Z,8.60
2023-04-18T02:47:46.983Z,8.63
2023-04-18T02:50:18.038Z,8.67
2023-04-18T02:52:44.866Z,9.07
2023-04-18T02:55:11.400Z,9.05
2023-04-18T02:57:38.160Z,9.30
2023-04-18T03:00:06.613Z,8.93
2023-04-18T03:02:33.155Z,8.93
2023-04-18T03:05:00.304Z,8.60
2023-04-18T03:07:27.028Z,9.23
2023-04-18T03:09:54.146Z,8.98
2023-04-18T03:12:20.590Z,9.70
2023-04-18T03:14:47.379Z,8.70
2023-04-18T03:17:14.125Z,9.10
2023-04-18T03:19:40.613Z,8.95
2023-04-18T03:22:07.482Z,8.93
2023-04-18T03:24:33.881Z,8.52
2023-04-18T03:27:00.724Z,9.60
2023-04-18T03:29:27.219Z,9.05
2023-04-18T03:31:53.882Z,8.93
2023-04-18T03:34:20.427Z,9.85
2023-04-18T03:36:48.245Z,10.82
2023-04-18T03:39:15.049Z,11.05
2023-04-18T03:41:41.535Z,10.95
2023-04-18T03:44:09.065Z,10.90
2023-04-18T03:46:35.678Z,12.50
2023-04-18T03:49:02.231Z,11.73
2023-04-18T03:51:33.307Z,12.32
2023-04-18T03:53:59.815Z,11.63
2023-04-18T03:56:26.596Z,11.35
2023-04-18T03:58:53.035Z,11.95
2023-04-18T04:01:19.678Z,11.80
2023-04-18T04:03:46.489Z,11.50
2023-04-18T04:06:13.404Z,12.98
2023-04-18T04:08:39.813Z,12.50
2023-04-18T04:11:06.376Z,12.55
2023-04-18T04:13:33.569Z,13.05
2023-04-18T04:16:00.771Z,13.98
2023-04-18T04:18:31.249Z,14.23
2023-04-18T04:20:59.197Z,14.68
2023-04-18T04:23:26.865Z,14.60
2023-04-18T04:25:53.959Z,15.23
2023-04-18T04:28:23.437Z,16.45
2023-04-18T04:30:51.120Z,15.63
2023-04-18T04:33:19.415Z,15.15
2023-04-18T04:35:49.915Z,14.80
2023-04-18T04:38:16.854Z,15.05
2023-04-18T04:40:43.486Z,14.20
2023-04-18T04:43:15.643Z,14.02
2023-04-18T04:45:48.041Z,14.80
2023-04-18T04:48:14.493Z,14.93
2023-04-18T04:50:42.087Z,14.57
2023-04-18T04:53:08.893Z,15.60
2023-04-18T04:55:35.509Z,15.75
2023-04-18T04:58:02.158Z,14.93
2023-04-18T05:00:29.118Z,14.15
2023-04-18T05:02:56.656Z,15.88
2023-04-18T05:05:23.419Z,15.02
2023-04-18T05:07:49.878Z,16.10
2023-04-18T05:10:17.332Z,16.48
2023-04-18T05:12:43.818Z,15.70
2023-04-18T05:15:10.865Z,14.70
2023-04-18T05:17:37.372Z,16.17
2023-04-18T05:20:04.968Z,15.80
2023-04-18T05:22:32.479Z,15.32
2023-04-18T05:24:59.092Z,14.80
2023-04-18T05:27:26.431Z,16.70
2023-04-18T05:29:53.082Z,16.48
2023-04-18T05:32:19.561Z,15.85
2023-04-18T05:34:46.130Z,16.08
2023-04-18T05:37:12.609Z,16.25
2023-04-18T05:39:39.727Z,16.05
2023-04-18T05:42:06.532Z,16.05
2023-04-18T05:44:33.086Z,16.48
2023-04-18T05:46:59.845Z,17.15
2023-04-18T05:49:26.562Z,16.85
2023-04-18T05:51:53.193Z,16.17
2023-04-18T05:54:21.673Z,16.83
2023-04-18T05:56:48.543Z,16.45
2023-04-18T05:59:15.156Z,17.30
2023-04-18T06:01:41.690Z,17.73
2023-04-18T06:04:08.687Z,18.55
2023-04-18T06:06:36.102Z,18.35
2023-04-18T06:09:02.647Z,18.33
2023-04-18T06:11:29.166Z,19.38
2023-04-18T06:13:58.678Z,19.15
2023-04-18T06:16:25.337Z,19.70
2023-04-18T06:18:51.973Z,19.38
2023-04-18T06:21:18.531Z,19.52
2023-04-18T06:23:45.127Z,20.50
2023-04-18T06:26:11.709Z,19.75
2023-04-18T06:28:38.277Z,19.33
2023-04-18T06:31:05.182Z,19.60
2023-04-18T06:33:31.820Z,19.60
2023-04-18T06:35:58.381Z,19.38
2023-04-18T06:38:24.950Z,19.63
2023-04-18T06:40:51.451Z,19.98
2023-04-18T06:43:17.972Z,20.60
2023-04-18T06:45:44.526Z,18.80
2023-04-18T06:48:11.143Z,19.92
2023-04-18T06:50:37.805Z,18.90
2023-04-18T06:53:04.409Z,19.35
2023-04-18T06:55:31.139Z,19.13
2023-04-18T06:57:57.705Z,19.65
2023-04-18T07:00:24.639Z,19.13
2023-04-18T07:02:51.389Z,19.85
2023-04-18T07:05:18.172Z,20.52
2023-04-18T07:07:44.871Z,18.80
2023-04-18T07:10:11.638Z,19.55
2023-04-18T07:12:38.448Z,19.23
2023-04-18T07:15:05.357Z,18.80
2023-04-18T07:17:32.082Z,19.23
2023-04-18T07:19:58.890Z,17.98
2023-04-18T07:22:25.770Z,18.42
2023-04-18T07:24:52.325Z,17.83
2023-04-18T07:27:19.048Z,17.08
2023-04-18T07:29:45.859Z,18.73
2023-04-18T07:32:12.448Z,17.67
2023-04-18T07:34:40.369Z,17.25
2023-04-18T07:37:07.112Z,17.30
2023-04-18T07:39:36.069Z,17.42
2023-04-18T07:42:05.615Z,17.65
2023-04-18T07:44:32.156Z,17.88
2023-04-18T07:46:58.800Z,16.65
2023-04-18T07:49:25.640Z,17.83
2023-04-18T07:51:52.153Z,17.73
2023-04-18T07:54:18.807Z,16.70
2023-04-18T07:56:45.433Z,17.20
2023-04-18T07:59:11.987Z,16.25
2023-04-18T08:01:38.588Z,16.08
2023-04-18T08:04:05.411Z,16.63
2023-04-18T08:06:32.135Z,16.73
2023-04-18T08:08:59.108Z,17.33
2023-04-18T08:11:25.631Z,16.17
2023-04-18T08:13:52.115Z,17.80
2023-04-18T08:16:18.687Z,16.90
2023-04-18T08:18:45.194Z,16.75
2023-04-18T08:21:11.768Z,16.75
2023-04-18T08:23:38.415Z,16.55
2023-04-18T08:26:05.021Z,17.67
2023-04-18T08:28:31.454Z,16.20
2023-04-18T08:30:58.132Z,16.15
2023-04-18T08:33:24.946Z,16.40
2023-04-18T08:35:51.856Z,17.02
2023-04-18T08:38:19.090Z,16.40
2023-04-18T08:40:46.132Z,16.70
2023-04-18T08:43:16.798Z,16.45
2023-04-18T08:45:44.707Z,16.50
2023-04-18T08:48:16.368Z,16.15
2023-04-18T08:50:43.082Z,16.77
2023-04-18T08:53:10.238Z,15.98
2023-04-18T08:55:37.091Z,17.27
2023-04-18T08:58:06.896Z,17.77
2023-04-18T09:00:33.441Z,16.88
2023-04-18T09:03:00.017Z,17.00
2023-04-18T09:05:27.564Z,16.17
2023-04-18T09:07:56.124Z,16.67
2023-04-18T09:10:27.464Z,15.82
2023-04-18T09:12:54.484Z,15.48
2023-04-18T09:15:23.798Z,16.02
2023-04-18T09:17:56.240Z,15.35
2023-04-18T09:20:38.360Z,14.70
2023-04-18T09:23:14.389Z,14.63
2023-04-18T09:25:48.740Z,14.00
2023-04-18T09:28:29.519Z,13.98
2023-04-18T09:30:57.875Z,14.38
2023-04-18T09:33:29.416Z,13.65
2023-04-18T09:35:57.009Z,14.40
2023-04-18T09:38:41.896Z,13.70
2023-04-18T09:41:09.384Z,13.68
2023-04-18T09:43:42.868Z,13.45
2023-04-18T09:46:09.739Z,13.40
2023-04-18T09:48:36.308Z,13.63
2023-04-18T09:51:07.774Z,12.48
2023-04-18T09:53:39.432Z,13.27
2023-04-18T09:56:07.424Z,12.57
2023-04-18T09:58:34.473Z,11.85
2023-04-18T10:01:01.508Z,12.13
2023-04-18T10:03:35.032Z,12.95
2023-04-18T10:06:01.758Z,12.73
2023-04-18T10:08:28.394Z,12.02
2023-04-18T10:10:56.577Z,11.48
2023-04-18T10:13:23.885Z,11.52
2023-04-18T10:15:52.332Z,11.82
2023-04-18T10:18:22.733Z,11.63
2023-04-18T10:20:49.519Z,10.80
2023-04-18T10:23:31.360Z,10.77
2023-04-18T10:25:58.621Z,10.65
2023-04-18T10:28:26.503Z,10.57
2023-04-18T10:31:03.456Z,10.50
2023-04-18T10:33:42.422Z,11.07
2023-04-18T10:36:09.136Z,10.75
2023-04-18T10:38:47.747Z,10.57
2023-04-18T10:41:28.410Z,10.00
2023-04-18T10:44:10.152Z,9.85
2023-04-18T10:46:41.303Z,9.53
2023-04-18T10:49:20.556Z,8.65
2023-04-18T10:51:48.001Z,9.07
2023-04-18T10:54:22.312Z,8.50
2023-04-18T10:56:53.726Z,8.77
2023-04-18T10:59:22.297Z,9.32
2023-04-18T11:01:52.258Z,9.20
2023-04-18T11:04:19.029Z,8.75
2023-04-18T11:06:50.204Z,8.70
2023-04-18T11:09:16.636Z,7.88
2023-04-18T11:11:44.195Z,8.68
2023-04-18T11:14:10.865Z,8.98
2023-04-18T11:16:37.449Z,9.00
2023-04-18T11:19:25.850Z,8.23
2023-04-18T11:21:52.281Z,8.43
2023-04-18T11:24:23.368Z,9.32
2023-04-18T11:26:49.953Z,9.52
2023-04-18T11:29:17.967Z,8.80
2023-04-18T11:31:51.345Z,8.90
2023-04-18T11:34:17.783Z,8.98
2023-04-18T11:36:44.334Z,8.25
2023-04-18T11:39:10.938Z,8.30
2023-04-18T11:41:37.365Z,8.13
2023-04-18T11:44:06.274Z,9.02
2023-04-18T11:46:39.357Z,8.43
2023-04-18T11:49:33.002Z,7.90
2023-04-18T11:51:59.875Z,8.40
2023-04-18T11:54:44.818Z,8.32
2023-04-18T11:57:25.516Z,8.30
2023-04-18T11:59:59.760Z,7.65
2023-04-18T12:02:46.477Z,8.80
2023-04-18T12:05:24.826Z,7.97
2023-04-18T12:07:51.368Z,7.88
2023-04-18T12:10:20.884Z,8.60
2023-04-18T12:12:48.562Z,8.85
2023-04-18T12:15:16.628Z,8.80
2023-04-18T12:17:48.345Z,8.27
2023-04-18T12:20:15.966Z,7.75
2023-04-18T12:22:43.428Z,8.60
2023-04-18T12:25:10.525Z,7.80
2023-04-18T12:27:59.173Z,7.88
2023-04-18T12:30:31.782Z,7.30
2023-04-18T12:33:00.091Z,7.10
2023-04-18T12:35:27.784Z,7.18
2023-04-18T12:37:55.840Z,7.00
2023-04-18T12:40:23.094Z,7.18
2023-04-18T12:42:50.992Z,6.95
2023-04-18T12:45:18.431Z,7.90
2023-04-18T12:47:46.205Z,7.55
2023-04-18T12:50:16.889Z,7.10
2023-04-18T12:52:44.729Z,6.70
2023-04-18T12:55:11.943Z,6.20
2023-04-18T12:57:38.465Z,6.60
2023-04-18T13:00:10.076Z,6.53
2023-04-18T13:02:41.695Z,6.83
2023-04-18T13:05:10.150Z,6.35
2023-04-18T13:07:40.613Z,5.85
2023-04-18T13:10:11.785Z,6.30
2023-04-18T13:12:41.728Z,6.35
2023-04-18T13:15:09.498Z,6.30
2023-04-18T13:17:38.884Z,6.45
2023-04-18T13:20:12.563Z,5.82
2023-04-18T13:22:42.855Z,5.47
2023-04-18T13:25:13.399Z,6.18
2023-04-18T13:27:41.971Z,5.93
2023-04-18T13:30:11.544Z,5.53
2023-04-18T13:32:39.171Z,6.40
2023-04-18T13:35:08.241Z,6.45
2023-04-18T13:37:34.682Z,5.47
2023-04-18T13:40:01.232Z,5.88
2023-04-18T13:42:27.695Z,5.72
2023-04-18T13:44:54.431Z,5.68
2023-04-18T13:47:20.978Z,5.40
2023-04-18T13:49:47.466Z,5.35
2023-04-18T13:52:13.876Z,5.40
2023-04-18T13:54:41.299Z,5.40
2023-04-18T13:57:11.496Z,4.90
2023-04-18T13:59:41.544Z,5.00
2023-04-18T14:02:08.877Z,5.25
2023-04-18T14:04:36.045Z,5.40
2023-04-18T14:07:03.104Z,5.00
2023-04-18T14:09:29.592Z,4.90
2023-04-18T14:11:57.349Z,5.15
2023-04-18T14:14:24.003Z,5.13
2023-04-18T14:16:50.533Z,5.05
2023-04-18T14:19:17.855Z,5.50
2023-04-18T14:21:46.406Z,5.35
2023-04-18T14:24:12.981Z,4.80
2023-04-18T14:26:39.497Z,4.78
2023-04-18T14:29:06.237Z,4.88
2023-04-18T14:31:32.760Z,5.65
2023-04-18T14:33:59.238Z,5.10
2023-04-18T14:36:27.123Z,5.05
2023-04-18T14:38:54.822Z,4.68
2023-04-18T14:41:21.551Z,5.22
2023-04-18T14:43:48.201Z,4.80
2023-04-18T14:46:17.559Z,5.68
2023-04-18T14:48:45.560Z,5.45
2023-04-18T14:51:12.241Z,5.10
2023-04-18T14:53:38.698Z,6.18
2023-04-18T14:56:05.227Z,5.50
2023-04-18T14:58:32.159Z,5.05
2023-04-18T15:00:58.879Z,5.25
2023-04-18T15:03:25.382Z,5.20
2023-04-18T15:05:53.185Z,5.70
2023-04-18T15:08:19.693Z,5.85
2023-04-18T15:10:47.515Z,5.90
2023-04-18T15:13:13.952Z,5.63
2023-04-18T15:15:40.386Z,5.55
2023-04-18T15:18:08.244Z,5.30
2023-04-18T15:20:36.031Z,5.93
2023-04-18T15:23:02.777Z,5.70
2023-04-18T15:25:30.363Z,5.07
2023-04-18T15:27:57.516Z,6.15
2023-04-18T15:30:24.189Z,6.00
2023-04-18T15:32:50.681Z,5.95
2023-04-18T15:35:17.203Z,5.70
2023-04-18T15:37:43.646Z,6.20
2023-04-18T15:40:11.283Z,6.38
2023-04-18T15:42:37.729Z,6.32
2023-04-18T15:45:04.508Z,6.10
2023-04-18T15:47:33.588Z,6.38
2023-04-18T15:50:00.647Z,6.78
2023-04-18T15:52:27.059Z,6.63
2023-04-18T15:54:53.903Z,6.90
2023-04-18T15:57:21.054Z,6.10
2023-04-18T15:59:47.505Z,6.15
2023-04-18T16:02:16.227Z,6.22
2023-04-18T16:04:42.825Z,6.50
2023-04-18T16:07:09.491Z,6.15
2023-04-18T16:09:36.212Z,6.55
2023-04-18T16:12:03.230Z,6.25
2023-04-18T16:14:30.821Z,6.90
2023-04-18T16:16:59.062Z,6.38
2023-04-18T16:19:25.501Z,6.80
2023-04-18T16:21:52.026Z,6.63
2023-04-18T16:24:18.705Z,6.55
2023-04-18T16:26:45.154Z,5.63
2023-04-18T16:29:11.587Z,6.85
2023-04-18T16:31:38.305Z,6.10
2023-04-18T16:34:04.850Z,6.72
2023-04-18T16:36:34.170Z,6.63
2023-04-18T16:39:00.710Z,6.30
2023-04-18T16:41:27.227Z,6.43
2023-04-18T16:43:54.006Z,6.97
2023-04-18T16:46:20.451Z,6.10
2023-04-18T16:48:46.973Z,6.75
2023-04-18T16:51:13.403Z,6.63
2023-04-18T16:53:40.000Z,6.47
2023-04-18T16:56:07.878Z,6.70
2023-04-18T16:58:34.413Z,7.10
2023-04-18T17:01:03.827Z,6.70
2023-04-18T17:03:30.520Z,7.03
2023-04-18T17:05:57.206Z,6.88
2023-04-18T17:08:25.776Z,7.07
2023-04-18T17:10:52.900Z,7.10
2023-04-18T17:13:19.364Z,7.22
2023-04-18T17:15:46.031Z,7.18
2023-04-18T17:18:12.557Z,7.70
2023-04-18T17:20:39.031Z,7.72
2023-04-18T17:23:05.447Z,7.50
2023-04-18T17:25:31.858Z,8.45
2023-04-18T17:27:58.578Z,7.57
2023-04-18T17:30:25.123Z,8.00
2023-04-18T17:32:51.668Z,7.78
2023-04-18T17:35:18.193Z,8.55
2023-04-18T17:37:44.641Z,8.32
2023-04-18T17:40:11.972Z,7.93
2023-04-18T17:42:38.626Z,8.43
2023-04-18T17:45:07.012Z,8.00
2023-04-18T17:47:34.225Z,8.15
2023-04-18T17:50:00.933Z,8.52
2023-04-18T17:52:31.209Z,8.52
2023-04-18T17:54:58.608Z,8.75
2023-04-18T17:57:26.570Z,9.13
2023-04-18T17:59:53.212Z,8.85
2023-04-18T18:02:20.006Z,8.27
2023-04-18T18:04:47.013Z,9.15
2023-04-18T18:07:13.527Z,8.82
2023-04-18T18:09:41.638Z,8.50
2023-04-18T18:12:09.896Z,9.90
2023-04-18T18:14:36.501Z,8.30
2023-04-18T18:17:03.343Z,8.70
2023-04-18T18:19:29.947Z,8.80
2023-04-18T18:21:56.381Z,7.80
2023-04-18T18:24:25.207Z,9.10
2023-04-18T18:26:51.876Z,8.60
2023-04-18T18:29:25.624Z,8.73
2023-04-18T18:31:52.141Z,8.32
2023-04-18T18:34:19.941Z,8.57
2023-04-18T18:36:46.354Z,8.43
2023-04-18T18:39:14.587Z,9.07
2023-04-18T18:41:41.170Z,8.57
2023-04-18T18:44:07.863Z,9.07
2023-04-18T18:46:35.233Z,9.75
2023-04-18T18:49:01.836Z,8.90
2023-04-18T18:51:29.118Z,9.93
2023-04-18T18:53:56.855Z,10.15
2023-04-18T18:56:23.409Z,10.73
2023-04-18T18:58:49.907Z,10.05
2023-04-18T19:01:16.502Z,10.18
2023-04-18T19:03:43.209Z,10.07
2023-04-18T19:06:09.761Z,9.73
2023-04-18T19:08:36.276Z,9.73
2023-04-18T19:11:02.681Z,10.52
2023-04-18T19:13:29.244Z,10.43
2023-04-18T19:15:55.914Z,11.07
2023-04-18T19:18:22.481Z,10.13
2023-04-18T19:20:51.637Z,10.48
2023-04-18T19:23:19.401Z,10.73
2023-04-18T19:25:46.454Z,10.23
2023-04-18T19:28:14.385Z,10.63
2023-04-18T19:30:42.061Z,10.57
2023-04-18T19:33:08.708Z,10.73
2023-04-18T19:35:37.661Z,10.88
2023-04-18T19:38:04.399Z,10.90
2023-04-18T19:40:30.947Z,10.73
2023-04-18T19:42:57.980Z,10.68
2023-04-18T19:45:24.548Z,10.57
2023-04-18T19:47:51.057Z,11.75
2023-04-18T19:50:17.688Z,10.68
2023-04-18T19:52:44.275Z,11.27
2023-04-18T19:55:10.877Z,10.32
2023-04-18T19:57:41.579Z,11.05
2023-04-18T20:00:12.941Z,11.23
2023-04-18T20:02:40.405Z,10.77
2023-04-18T20:05:08.307Z,10.05
2023-04-18T20:07:35.538Z,10.90
2023-04-18T20:10:02.078Z,10.55
2023-04-18T20:12:28.765Z,10.75
2023-04-18T20:14:55.389Z,11.55
2023-04-18T20:17:21.903Z,10.65
2023-04-18T20:19:49.512Z,10.98
2023-04-18T20:22:16.215Z,11.70
2023-04-18T20:24:44.967Z,11.07
2023-04-18T20:27:11.641Z,10.50
2023-04-18T20:29:38.027Z,10.73
2023-04-18T20:32:04.624Z,10.82
2023-04-18T20:34:31.440Z,10.90
2023-04-18T20:36:59.875Z,11.13
2023-04-18T20:39:26.297Z,10.27
2023-04-18T20:41:54.201Z,10.60
2023-04-18T20:44:21.737Z,9.88
2023-04-18T20:46:48.285Z,10.55
2023-04-18T20:49:14.798Z,11.18
2023-04-18T20:51:41.326Z,9.55
2023-04-18T20:54:07.734Z,10.15
2023-04-18T20:56:36.236Z,10.63
2023-04-18T20:59:04.473Z,10.00
2023-04-18T21:01:31.405Z,9.80
2023-04-18T21:03:58.109Z,10.18
2023-04-18T21:06:24.710Z,9.80
2023-04-18T21:08:51.161Z,9.45
2023-04-18T21:11:17.645Z,9.68
2023-04-18T21:13:44.057Z,9.40
2023-04-18T21:16:10.751Z,9.23
2023-04-18T21:18:37.316Z,8.95
2023-04-18T21:21:04.140Z,8.65
2023-04-18T21:23:30.553Z,8.73
2023-04-18T21:25:56.928Z,8.35
2023-04-18T21:28:23.429Z,8.70
2023-04-18T21:30:49.876Z,8.93
2023-04-18T21:33:16.469Z,8.32
2023-04-18T21:35:42.865Z,8.40
2023-04-18T21:38:09.319Z,8.75
2023-04-18T21:40:37.118Z,8.55
2023-04-18T21:43:03.497Z,8.65
2023-04-18T21:45:30.095Z,7.78
2023-04-18T21:47:56.659Z,8.13
2023-04-18T21:50:23.214Z,7.80
2023-04-18T21:52:49.604Z,8.48
2023-04-18T21:55:16.188Z,7.45
2023-04-18T21:57:42.687Z,7.90
2023-04-18T22:00:11.110Z,7.30
2023-04-18T22:02:37.738Z,7.05
2023-04-18T22:05:04.471Z,7.15
2023-04-18T22:07:31.037Z,7.38
2023-04-18T22:09:59.598Z,7.10
2023-04-18T22:12:26.351Z,7.65
2023-04-18T22:14:52.902Z,7.00
2023-04-18T22:17:20.806Z,6.80
2023-04-18T22:19:49.706Z,7.05
2023-04-18T22:22:16.294Z,6.90
2023-04-18T22:24:43.257Z,6.75
2023-04-18T22:27:10.927Z,6.63
2023-04-18T22:29:37.324Z,7.13
2023-04-18T22:32:03.725Z,6.68
2023-04-18T22:34:30.391Z,6.18
2023-04-18T22:36:56.772Z,6.38
2023-04-18T22:39:24.937Z,6.28
2023-04-18T22:41:51.353Z,5.70
2023-04-18T22:44:17.873Z,6.13
2023-04-18T22:46:44.703Z,5.70
2023-04-18T22:49:11.409Z,6.10
2023-04-18T22:51:38.150Z,5.68
2023-04-18T22:54:04.739Z,6.15
2023-04-18T22:56:31.199Z,5.72
2023-04-18T22:58:57.576Z,5.45
2023-04-18T23:01:24.035Z,5.53
2023-04-18T23:03:50.688Z,5.88
2023-04-18T23:06:17.262Z,5.63
2023-04-18T23:08:43.681Z,5.35
2023-04-18T23:11:11.058Z,5.30
2023-04-18T23:13:37.716Z,5.32
2023-04-18T23:16:04.378Z,5.15
2023-04-18T23:18:30.933Z,5.20
2023-04-18T23:20:57.309Z,5.60
2023-04-18T23:23:23.770Z,5.07
2023-04-18T23:25:50.221Z,4.80
2023-04-18T23:28:17.118Z,5.10
2023-04-18T23:30:43.809Z,4.95
2023-04-18T23:33:10.455Z,5.63
2023-04-18T23:35:36.970Z,4.82
2023-04-18T23:38:03.448Z,5.15
2023-04-18T23:40:29.887Z,5.10
2023-04-18T23:42:56.253Z,5.30
2023-04-18T23:45:24.261Z,4.90
2023-04-18T23:47:51.427Z,5.60
2023-04-18T23:50:18.034Z,5.47
2023-04-18T23:52:44.500Z,5.53
2023-04-18T23:55:10.913Z,5.63
2023-04-18T23:57:37.380Z,5.55
